Time;durP1;ratioP1;P1;durP2;ratioP2;P2;SDS_P1;SDS_P2;PMS_P1;PMS_P2;Temp;Humidity;BMP_temperature;BMP_pressure;BME280_temperature;BME280_humidity;BME280_pressure;Samples;Min_cycle;Max_cycle;Signal;HPM_P1;HPM_P2
2023/07/18 00:01:40;;;;;;;12.13;10.82;;;;;;;23.70;83.04;65488.00;5032957;28;20214;-52
2023/07/18 00:04:05;;;;;;;10.80;9.10;;;;;;;23.78;82.27;65502.03;5032958;28;20201;-50
2023/07/18 00:06:32;;;;;;;11.18;10.00;;;;;;;23.82;82.07;65504.44;5032839;28;20293;-51
2023/07/18 00:08:57;;;;;;;12.38;10.23;;;;;;;23.69;82.94;65489.47;5032865;28;20202;-51
2023/07/18 00:11:23;;;;;;;12.95;9.82;;;;;;;23.66;83.62;65483.56;5032972;28;20221;-51
2023/07/18 00:13:49;;;;;;;10.63;9.57;;;;;;;23.67;83.63;65487.28;5031971;28;20171;-51
2023/07/18 00:16:15;;;;;;;10.55;9.38;;;;;;;23.40;85.53;65454.78;5032677;28;20241;-50
2023/07/18 00:18:40;;;;;;;12.13;10.93;;;;;;;23.31;86.73;65451.06;5032845;28;20248;-51
2023/07/18 00:21:07;;;;;;;10.98;9.88;;;;;;;23.25;87.35;65441.81;5032747;28;20273;-52
2023/07/18 00:23:34;;;;;;;12.15;10.93;;;;;;;23.22;87.83;65438.50;5032781;28;20224;-51
2023/07/18 00:25:59;;;;;;;11.73;10.52;;;;;;;23.21;88.19;65436.84;5032528;28;20276;-51
2023/07/18 00:28:25;;;;;;;12.48;11.18;;;;;;;23.19;89.08;65434.63;5032635;28;20202;-50
2023/07/18 00:30:51;;;;;;;14.00;11.55;;;;;;;23.25;89.21;65441.28;5032939;28;21122;-53
2023/07/18 00:33:16;;;;;;;12.40;11.05;;;;;;;23.17;89.99;65429.81;5032594;28;20710;-52
2023/07/18 00:35:43;;;;;;;12.20;10.35;;;;;;;23.18;90.56;65434.06;5032583;28;20210;-50
2023/07/18 00:38:11;;;;;;;12.07;10.90;;;;;;;23.11;90.82;65423.16;5032582;28;20202;-55
2023/07/18 00:40:40;;;;;;;12.93;11.25;;;;;;;23.17;91.01;65432.94;5032130;28;20301;-52
2023/07/18 00:43:14;;;;;;;11.52;10.32;;;;;;;23.18;91.09;65431.50;5032495;28;20214;-51
2023/07/18 00:45:39;;;;;;;11.38;10.18;;;;;;;23.33;90.29;65448.13;5032370;28;20217;-53
2023/07/18 00:48:05;;;;;;;15.82;11.48;;;;;;;23.45;90.10;65460.88;5032288;28;20202;-51
2023/07/18 00:50:31;;;;;;;11.90;10.77;;;;;;;23.49;89.40;65467.31;5032183;28;20245;-51
2023/07/18 00:52:57;;;;;;;12.95;10.90;;;;;;;23.53;89.60;65472.31;5032159;28;20217;-50
2023/07/18 00:55:23;;;;;;;12.77;11.45;;;;;;;23.49;89.66;65467.31;5032181;28;20200;-51
2023/07/18 00:57:49;;;;;;;12.02;10.82;;;;;;;23.44;90.62;65461.78;5032109;28;20301;-51
2023/07/18 01:00:16;;;;;;;12.55;11.25;;;;;;;23.49;89.55;65467.31;5032187;28;20210;-52
2023/07/18 01:02:43;;;;;;;11.90;10.35;;;;;;;23.59;88.40;65476.38;5072228;22;20217;-56
2023/07/18 01:05:10;;;;;;;11.95;10.40;;;;;;;23.58;88.75;65475.28;5072098;28;20196;-53
2023/07/18 01:07:37;;;;;;;11.38;10.27;;;;;;;23.68;87.41;65485.78;5054731;28;20213;-52
2023/07/18 01:10:32;;;;;;;13.13;11.35;;;;;;;23.71;87.64;65492.25;5051630;28;20691;-56
2023/07/18 01:13:00;;;;;;;12.13;10.93;;;;;;;23.75;87.04;65498.72;5034384;28;20244;-54
2023/07/18 01:15:31;;;;;;;12.48;10.90;;;;;;;23.76;85.50;65497.22;5051831;28;20198;-56
2023/07/18 01:17:56;;;;;;;11.40;10.27;;;;;;;23.71;86.53;65489.69;5051744;28;20209;-56
2023/07/18 01:20:26;;;;;;;11.98;10.73;;;;;;;23.71;88.32;65491.69;5051820;28;20660;-53
2023/07/18 01:22:55;;;;;;;12.27;10.27;;;;;;;23.66;87.17;65486.72;5051613;28;20301;-52
2023/07/18 01:25:21;;;;;;;11.52;10.38;;;;;;;23.62;88.60;65479.16;5051536;28;20262;-52
2023/07/18 01:27:48;;;;;;;12.10;10.38;;;;;;;23.65;89.17;65488.19;5051536;28;20209;-52
2023/07/18 01:30:16;;;;;;;12.13;10.93;;;;;;;23.67;87.91;65484.69;5051616;28;20258;-50
2023/07/18 01:32:42;;;;;;;12.77;10.50;;;;;;;23.65;88.09;65485.06;5051522;28;20213;-51
2023/07/18 01:35:08;;;;;;;12.13;10.82;;;;;;;23.62;87.71;65481.72;5051502;28;20197;-51
2023/07/18 01:37:35;;;;;;;13.38;10.82;;;;;;;23.49;87.34;65464.75;5051451;28;20240;-52
2023/07/18 01:40:01;;;;;;;12.07;10.77;;;;;;;23.46;86.99;65466.56;5051632;28;20259;-51
2023/07/18 01:42:26;;;;;;;11.68;10.27;;;;;;;23.26;88.12;65442.94;5051178;28;20700;-50
2023/07/18 01:44:52;;;;;;;11.25;10.15;;;;;;;23.16;89.05;65431.28;5051147;28;20201;-50
2023/07/18 01:47:18;;;;;;;12.18;10.80;;;;;;;23.25;88.42;65441.81;5050055;28;20209;-51
2023/07/18 01:49:43;;;;;;;14.25;11.18;;;;;;;23.23;87.99;65439.59;5051328;28;20189;-51
2023/07/18 01:52:09;;;;;;;11.73;10.63;;;;;;;23.10;88.51;65422.63;5051037;28;20213;-51
2023/07/18 01:54:35;;;;;;;14.38;11.95;;;;;;;22.99;89.16;65413.00;5051176;28;20205;-51
2023/07/18 01:57:01;;;;;;;15.32;11.65;;;;;;;22.89;89.84;65399.38;5051087;28;20205;-51
2023/07/18 01:59:26;;;;;;;13.07;11.48;;;;;;;22.87;90.24;65402.28;5033388;28;20194;-52
2023/07/18 02:01:52;;;;;;;15.02;11.20;;;;;;;22.73;90.61;65386.78;5051286;28;20568;-51
2023/07/18 02:04:18;;;;;;;12.90;11.23;;;;;;;22.77;90.71;65388.09;5051220;28;20189;-50
2023/07/18 02:06:44;;;;;;;12.82;11.25;;;;;;;22.68;91.56;65378.69;5051228;28;20210;-51
2023/07/18 02:09:10;;;;;;;11.65;10.43;;;;;;;22.77;91.74;65388.09;5051277;28;20201;-51
2023/07/18 02:11:35;;;;;;;15.20;11.32;;;;;;;22.76;92.34;65386.97;5051035;28;20209;-52
2023/07/18 02:14:03;;;;;;;12.73;10.63;;;;;;;22.67;93.38;65377.00;5050900;28;20204;-51
2023/07/18 02:16:29;;;;;;;13.40;12.00;;;;;;;22.71;92.26;65381.44;5050802;28;20228;-53
2023/07/18 02:18:56;;;;;;;12.13;10.80;;;;;;;22.65;92.66;65377.91;5050862;28;20288;-50
2023/07/18 02:21:21;;;;;;;14.20;11.20;;;;;;;22.67;92.94;65380.13;5051004;28;20692;-53
2023/07/18 02:23:47;;;;;;;12.90;11.63;;;;;;;22.77;92.81;65391.22;5050761;28;20211;-51
2023/07/18 02:26:14;;;;;;;11.77;10.68;;;;;;;22.87;92.43;65399.72;5050927;28;20644;-52
2023/07/18 02:28:39;;;;;;;13.13;11.02;;;;;;;22.88;92.97;65400.28;5049419;28;20236;-51
2023/07/18 02:31:05;;;;;;;14.25;11.77;;;;;;;22.90;93.08;65402.50;5032890;28;20240;-51
2023/07/18 02:33:31;;;;;;;15.77;11.68;;;;;;;22.80;93.34;65391.97;5032659;28;20554;-53
2023/07/18 02:35:56;;;;;;;13.88;11.57;;;;;;;22.73;94.48;65381.63;5050607;28;20582;-52
2023/07/18 02:38:22;;;;;;;13.02;11.70;;;;;;;22.68;94.75;65375.56;5049781;28;20197;-50
2023/07/18 02:40:48;;;;;;;15.23;12.02;;;;;;;22.74;94.38;65382.19;5050366;28;20224;-53
2023/07/18 02:43:15;;;;;;;16.15;11.48;;;;;;;22.65;95.27;65375.34;5050450;28;20219;-59
2023/07/18 02:45:40;;;;;;;12.95;11.52;;;;;;;22.66;95.24;65379.03;5050538;28;20201;-51
2023/07/18 02:48:06;;;;;;;12.73;11.05;;;;;;;22.71;95.60;65381.44;5050573;28;20251;-51
2023/07/18 02:50:31;;;;;;;14.77;13.02;;;;;;;22.74;95.62;65384.78;5050550;28;20586;-51
2023/07/18 02:52:58;;;;;;;13.48;11.32;;;;;;;22.82;94.85;65394.19;5032367;28;20699;-51
2023/07/18 02:55:24;;;;;;;13.50;11.77;;;;;;;22.85;95.06;65396.94;5050488;28;20284;-51
2023/07/18 02:57:57;;;;;;;13.48;11.80;;;;;;;22.75;96.30;65389.00;5050253;28;20202;-52
2023/07/18 03:00:25;;;;;;;15.73;13.00;;;;;;;22.61;97.67;65367.78;5050248;28;20305;-51
2023/07/18 03:02:51;;;;;;;14.00;11.70;;;;;;;22.52;97.57;65363.53;5050329;28;20236;-55
2023/07/18 03:05:18;;;;;;;14.10;12.13;;;;;;;22.43;98.41;65351.53;5050437;28;20676;-52
2023/07/18 03:07:44;;;;;;;12.85;11.55;;;;;;;22.58;98.02;65367.63;5048841;28;20228;-52
2023/07/18 03:10:10;;;;;;;13.30;11.30;;;;;;;22.57;98.30;65369.03;5050260;28;20193;-50
2023/07/18 03:12:36;;;;;;;14.55;12.30;;;;;;;22.57;97.92;65369.03;5050245;28;20217;-52
2023/07/18 03:15:02;;;;;;;12.65;11.30;;;;;;;22.67;97.34;65379.59;5050025;28;20690;-52
2023/07/18 03:17:28;;;;;;;13.75;12.45;;;;;;;22.66;97.32;65376.47;5050187;28;20291;-53
2023/07/18 03:19:54;;;;;;;12.93;11.27;;;;;;;23.07;94.99;65421.88;5049003;28;20235;-51
2023/07/18 03:22:19;;;;;;;18.35;12.55;;;;;;;23.08;93.87;65422.97;5049772;28;20240;-51
2023/07/18 03:24:47;;;;;;;15.43;12.00;;;;;;;22.87;94.39;65399.72;5049955;28;20224;-51
2023/07/18 03:27:13;;;;;;;19.55;14.35;;;;;;;22.69;96.17;65379.78;5049914;28;20205;-50
2023/07/18 03:29:39;;;;;;;17.58;12.52;;;;;;;22.51;98.08;65359.84;5049750;28;20568;-50
2023/07/18 03:32:05;;;;;;;18.92;13.93;;;;;;;22.35;99.42;65342.13;5050234;28;20206;-52
2023/07/18 03:34:31;;;;;;;16.88;13.73;;;;;;;22.29;100.00;65335.47;5031872;28;20255;-56
2023/07/18 03:36:56;;;;;;;17.90;13.93;;;;;;;22.40;100.00;65348.19;5049516;28;20672;-51
2023/07/18 03:39:22;;;;;;;18.58;13.98;;;;;;;22.51;100.00;65357.81;5049807;28;20626;-51
2023/07/18 03:41:47;;;;;;;16.52;13.88;;;;;;;22.66;99.78;65373.91;5049628;28;20304;-57
2023/07/18 03:44:13;;;;;;;18.10;14.68;;;;;;;22.69;99.88;65379.22;5049798;28;20190;-51
2023/07/18 03:46:39;;;;;;;20.50;16.27;;;;;;;22.77;99.71;65385.50;5031613;28;20604;-53
2023/07/18 03:49:04;;;;;;;18.00;14.32;;;;;;;22.76;100.00;65384.41;5051321;28;20206;-56
2023/07/18 03:51:30;;;;;;;17.67;14.07;;;;;;;22.48;100.00;65356.53;5052880;28;20605;-52
2023/07/18 03:53:55;;;;;;;15.30;13.68;;;;;;;22.51;100.00;65360.38;5053291;28;20283;-51
2023/07/18 03:56:21;;;;;;;17.90;13.80;;;;;;;22.64;100.00;65374.25;5053479;28;20689;-50
2023/07/18 03:58:46;;;;;;;15.68;14.00;;;;;;;22.56;100.00;65367.94;5053118;28;20190;-51
2023/07/18 04:01:12;;;;;;;16.95;13.82;;;;;;;22.47;100.00;65352.84;5052778;28;20850;-52
2023/07/18 04:03:39;;;;;;;16.33;13.55;;;;;;;22.74;100.00;65384.78;5053205;28;20279;-52
2023/07/18 04:06:05;;;;;;;15.73;13.68;;;;;;;22.68;100.00;65378.13;5052909;28;20240;-52
2023/07/18 04:08:31;;;;;;;17.30;14.13;;;;;;;22.58;100.00;65369.63;5053115;28;20715;-51
2023/07/18 04:11:00;;;;;;;18.27;16.05;;;;;;;22.35;100.00;65342.13;5052942;28;20210;-51
2023/07/18 04:13:26;;;;;;;16.27;13.40;;;;;;;22.47;100.00;65357.97;5052998;28;20204;-51
2023/07/18 04:15:55;;;;;;;17.23;14.68;;;;;;;22.46;100.00;65354.84;5052924;28;20198;-52
2023/07/18 04:18:21;;;;;;;18.65;15.05;;;;;;;22.36;100.00;65343.25;5052890;28;20262;-52
2023/07/18 04:20:46;;;;;;;18.88;15.40;;;;;;;22.53;100.00;65362.59;5052894;28;20655;-50
2023/07/18 04:23:12;;;;;;;33.15;26.25;;;;;;;22.69;100.00;65379.22;5052611;28;20225;-51
2023/07/18 04:26:00;;;;;;;17.85;15.27;;;;;;;22.59;100.00;65368.72;5052844;28;20565;-51
2023/07/18 04:28:34;;;;;;;19.27;14.82;;;;;;;22.45;100.00;65353.19;5052512;28;20205;-51
2023/07/18 04:31:04;;;;;;;16.15;14.45;;;;;;;22.38;100.00;65348.03;5052471;28;20270;-53
2023/07/18 04:33:37;;;;;;;17.80;14.68;;;;;;;22.53;100.00;65362.03;5052402;28;20278;-52
2023/07/18 04:36:05;;;;;;;17.58;14.32;;;;;;;22.52;100.00;65363.53;5052264;28;20209;-51
2023/07/18 04:38:31;;;;;;;18.73;14.73;;;;;;;22.53;100.00;65362.59;5051105;28;20208;-51
2023/07/18 04:40:57;;;;;;;16.70;14.80;;;;;;;22.74;100.00;65384.78;5052326;28;20522;-51
2023/07/18 04:43:23;;;;;;;16.88;15.07;;;;;;;22.88;98.69;65402.84;5050799;28;20304;-50
2023/07/18 04:45:49;;;;;;;20.27;14.40;;;;;;;22.97;99.49;65407.66;5052336;28;20680;-50
2023/07/18 04:48:16;;;;;;;16.25;14.48;;;;;;;23.09;99.68;65424.09;5052069;28;20212;-51
2023/07/18 04:50:43;;;;;;;17.55;15.05;;;;;;;23.05;100.00;65419.66;5052014;28;20198;-51
2023/07/18 04:53:11;;;;;;;20.48;15.82;;;;;;;22.91;99.22;65401.56;5050871;28;20271;-51
2023/07/18 04:55:37;;;;;;;19.60;15.23;;;;;;;22.94;97.48;65407.47;5051788;28;20209;-55
2023/07/18 04:58:04;;;;;;;15.80;14.02;;;;;;;23.11;97.62;65425.75;5051926;28;20750;-51
2023/07/18 05:00:31;;;;;;;19.42;14.25;;;;;;;23.16;97.93;65434.41;5051235;28;20259;-51
2023/07/18 05:02:58;;;;;;;17.27;13.75;;;;;;;23.05;94.86;65416.53;5051680;28;20370;-51
2023/07/18 05:05:27;;;;;;;13.40;11.55;;;;;;;23.24;90.43;65440.72;5051899;28;20205;-53
2023/07/18 05:08:00;;;;;;;16.83;13.23;;;;;;;23.38;93.09;65453.09;5050259;28;20205;-50
2023/07/18 05:10:26;;;;;;;17.20;14.48;;;;;;;23.51;92.45;65469.53;5033748;28;20212;-50
2023/07/18 05:12:54;;;;;;;17.30;13.75;;;;;;;23.47;94.13;65463.09;5051652;28;20205;-51
2023/07/18 05:15:20;;;;;;;16.88;15.18;;;;;;;23.35;94.79;65450.34;5051453;28;20247;-54
2023/07/18 05:17:46;;;;;;;19.42;15.90;;;;;;;23.26;95.17;65442.94;5051528;28;20225;-52
2023/07/18 05:20:12;;;;;;;16.27;13.85;;;;;;;23.46;95.82;65464.00;5051967;28;20296;-51
2023/07/18 05:22:42;;;;;;;21.48;15.35;;;;;;;23.62;93.54;65479.16;5051647;28;20752;-52
2023/07/18 05:25:08;;;;;;;16.33;14.52;;;;;;;23.74;91.96;65495.56;5051413;28;20200;-54
2023/07/18 05:27:34;;;;;;;16.63;14.05;;;;;;;23.93;89.84;65516.09;5051436;28;20416;-50
2023/07/18 05:30:00;;;;;;;15.68;14.07;;;;;;;24.01;89.24;65522.94;5033632;28;20356;-51
2023/07/18 05:32:26;;;;;;;24.13;16.73;;;;;;;24.03;93.09;65524.63;5051271;28;20714;-50
2023/07/18 05:34:51;;;;;;;20.80;14.98;;;;;;;24.24;93.53;65549.94;5051261;28;20197;-51
2023/07/18 05:37:17;;;;;;;22.25;17.02;;;;;;;24.42;92.09;65567.31;5051143;28;20313;-51
2023/07/18 05:39:43;;;;;;;18.13;13.32;;;;;;;24.54;90.46;65583.19;5051138;28;20204;-50
2023/07/18 05:42:09;;;;;;;17.30;14.85;;;;;;;24.79;86.83;65608.38;5050863;28;20214;-53
2023/07/18 05:44:34;;;;;;;15.35;13.02;;;;;;;24.77;87.74;65606.69;5051164;28;20209;-52
2023/07/18 05:47:00;;;;;;;15.15;13.63;;;;;;;24.87;86.50;65617.22;5050981;28;20599;-51
2023/07/18 05:49:27;;;;;;;20.75;14.93;;;;;;;24.98;85.53;65629.44;5050760;28;20237;-51
2023/07/18 05:51:54;;;;;;;14.35;12.57;;;;;;;25.11;84.72;65643.31;5050567;28;20213;-49
2023/07/18 05:54:19;;;;;;;18.25;13.98;;;;;;;25.18;84.79;65653.66;5049852;28;20212;-50
2023/07/18 05:56:44;;;;;;;19.60;16.38;;;;;;;25.42;83.28;65678.31;5051040;28;20209;-50
2023/07/18 05:59:10;;;;;;;17.48;14.02;;;;;;;25.32;84.22;65667.19;5050894;28;20223;-51
2023/07/18 06:01:36;;;;;;;18.88;16.85;;;;;;;25.24;84.92;65658.31;5050880;28;20209;-51
2023/07/18 06:04:01;;;;;;;18.58;15.90;;;;;;;25.07;86.44;65638.88;5050630;28;20308;-52
2023/07/18 06:06:27;;;;;;;16.20;14.48;;;;;;;24.87;87.53;65620.38;5051098;28;20205;-50
2023/07/18 06:08:53;;;;;;;21.98;16.10;;;;;;;24.85;87.14;65615.00;5050846;28;20636;-51
2023/07/18 06:11:18;;;;;;;18.00;16.08;;;;;;;24.89;85.98;65617.44;5050218;28;20204;-52
2023/07/18 06:13:44;;;;;;;21.38;16.38;;;;;;;25.14;86.46;65647.22;5050109;28;20668;-51
2023/07/18 06:16:10;;;;;;;21.65;17.65;;;;;;;25.05;85.49;65637.22;5050489;28;20267;-50
2023/07/18 06:18:36;;;;;;;23.08;15.77;;;;;;;24.98;85.16;65632.59;5049430;28;20186;-51
2023/07/18 06:21:05;;;;;;;18.63;15.77;;;;;;;24.95;84.73;65628.69;5050766;28;20209;-51
2023/07/18 06:23:31;;;;;;;19.33;16.08;;;;;;;25.07;85.38;65638.88;5050732;28;20213;-50
2023/07/18 06:25:56;;;;;;;17.40;15.63;;;;;;;25.35;84.67;65669.97;5050617;28;20197;-51
2023/07/18 06:28:22;;;;;;;18.13;15.05;;;;;;;25.26;84.21;65660.53;5050581;28;20567;-51
2023/07/18 06:30:53;;;;;;;17.10;14.70;;;;;;;25.32;82.94;65666.63;5050492;28;20617;-50
2023/07/18 06:33:19;;;;;;;20.63;15.20;;;;;;;25.35;83.89;65669.97;5050648;28;20303;-52
2023/07/18 06:35:55;;;;;;;18.77;15.73;;;;;;;25.45;85.29;65681.63;5050368;28;20205;-52
2023/07/18 06:38:22;;;;;;;17.73;15.82;;;;;;;25.15;84.45;65647.75;5050496;28;20205;-51
2023/07/18 06:40:49;;;;;;;18.00;15.05;;;;;;;25.71;84.24;65709.94;5049085;28;20759;-52
2023/07/18 06:43:15;;;;;;;18.80;16.00;;;;;;;25.75;83.38;65717.53;5050079;28;20221;-51
2023/07/18 06:45:45;;;;;;;19.80;16.45;;;;;;;25.65;82.89;65703.28;5050385;28;20213;-53
2023/07/18 06:48:11;;;;;;;19.20;17.00;;;;;;;25.69;82.71;65708.25;5050176;28;20229;-59
2023/07/18 06:51:02;;;;;;;19.98;16.02;;;;;;;25.89;81.85;65729.38;5050284;28;20255;-53
2023/07/18 06:53:28;;;;;;;20.20;16.42;;;;;;;25.90;81.76;65733.63;5050234;28;20229;-51
2023/07/18 06:55:55;;;;;;;23.38;16.60;;;;;;;25.93;82.76;65733.81;5050170;28;20252;-52
2023/07/18 06:58:21;;;;;;;18.50;16.25;;;;;;;26.08;83.43;65750.50;5032555;28;20205;-51
2023/07/18 07:00:46;;;;;;;21.13;16.85;;;;;;;26.16;83.44;65761.97;5050472;28;20202;-56
2023/07/18 07:03:14;;;;;;;19.92;16.75;;;;;;;26.39;82.79;65784.91;5050156;28;20244;-51
2023/07/18 07:05:42;;;;;;;22.50;17.33;;;;;;;26.31;82.88;65773.44;5050041;28;20205;-53
2023/07/18 07:08:09;;;;;;;24.70;17.05;;;;;;;26.50;82.17;65797.69;5050366;28;20174;-53
2023/07/18 07:10:40;;;;;;;24.85;16.65;;;;;;;26.49;83.21;65796.59;5049851;28;20205;-51
2023/07/18 07:13:07;;;;;;;25.10;17.35;;;;;;;26.67;82.22;65815.47;5050075;28;20212;-50
2023/07/18 07:15:32;;;;;;;18.92;16.95;;;;;;;26.73;83.31;65819.56;5049781;28;20201;-52
2023/07/18 07:17:59;;;;;;;20.70;16.40;;;;;;;26.93;82.84;65844.38;5048805;28;20217;-51
2023/07/18 07:20:25;;;;;;;22.30;18.77;;;;;;;27.04;81.41;65854.59;5050000;28;20330;-50
2023/07/18 07:22:59;;;;;;;30.10;17.85;;;;;;;27.16;80.18;65869.97;5049297;28;20228;-51
2023/07/18 07:25:31;;;;;;;23.75;17.90;;;;;;;27.14;81.70;65867.72;5053293;28;20636;-51
2023/07/18 07:27:57;;;;;;;26.67;18.70;;;;;;;27.18;81.38;65872.19;5052780;28;20399;-56
2023/07/18 07:30:23;;;;;;;21.88;18.35;;;;;;;27.27;80.25;65882.72;5052917;28;20212;-51
2023/07/18 07:32:53;;;;;;;24.48;18.42;;;;;;;27.28;81.25;65881.28;5053073;28;20206;-51
2023/07/18 07:35:22;;;;;;;24.55;18.38;;;;;;;27.52;78.39;65907.41;5053311;28;20201;-51
2023/07/18 07:37:51;;;;;;;21.15;17.08;;;;;;;27.50;77.06;65907.78;5052680;28;20588;-51
2023/07/18 07:40:17;;;;;;;21.65;17.33;;;;;;;27.48;76.69;65900.38;5052875;28;20205;-51
2023/07/18 07:42:45;;;;;;;22.05;17.02;;;;;;;27.63;75.81;65919.09;5052850;28;20762;-53
2023/07/18 07:45:12;;;;;;;22.55;16.58;;;;;;;27.97;73.58;65956.94;5052896;28;20289;-52
2023/07/18 07:47:38;;;;;;;20.27;15.63;;;;;;;28.00;73.71;65962.84;5053074;28;20224;-51
2023/07/18 07:50:12;;;;;;;23.75;15.85;;;;;;;28.06;74.73;65967.50;5052982;28;20224;-52
2023/07/18 07:52:39;;;;;;;28.80;17.35;;;;;;;28.28;72.79;65994.00;5052846;28;20722;-53
2023/07/18 07:55:06;;;;;;;20.73;15.70;;;;;;;28.23;70.89;65983.81;5051626;28;20220;-54
2023/07/18 07:57:32;;;;;;;16.48;14.75;;;;;;;28.35;70.96;66001.78;5052642;28;20219;-54
2023/07/18 07:59:57;;;;;;;22.67;16.58;;;;;;;28.39;70.04;66006.25;5052756;28;20616;-51
2023/07/18 08:02:23;;;;;;;17.40;15.55;;;;;;;28.42;70.07;66009.59;5052773;28;20267;-52
2023/07/18 08:04:49;;;;;;;17.10;15.30;;;;;;;28.56;69.83;66022.03;5052686;28;20259;-53
2023/07/18 08:07:15;;;;;;;19.88;15.85;;;;;;;28.74;69.63;66042.63;5052438;28;20610;-53
2023/07/18 08:09:41;;;;;;;38.45;17.45;;;;;;;28.85;69.91;66054.31;5051576;28;20201;-52
2023/07/18 08:12:07;;;;;;;26.20;17.77;;;;;;;28.82;68.21;66053.56;5052703;28;20225;-53
2023/07/18 08:14:34;;;;;;;21.83;15.98;;;;;;;28.87;67.97;66057.09;5034995;28;20213;-54
2023/07/18 08:17:00;;;;;;;18.20;16.30;;;;;;;28.88;68.00;66060.25;5052450;28;20242;-52
2023/07/18 08:19:26;;;;;;;25.67;17.27;;;;;;;28.87;68.17;66057.09;5052523;28;20259;-57
2023/07/18 08:21:52;;;;;;;24.73;16.58;;;;;;;29.12;67.39;66089.56;5052294;28;20205;-52
2023/07/18 08:24:18;;;;;;;18.42;16.30;;;;;;;29.24;66.97;66097.75;5052356;28;20284;-54
2023/07/18 08:26:44;;;;;;;22.77;17.60;;;;;;;29.59;67.31;66133.59;5052558;28;20271;-52
2023/07/18 08:29:09;;;;;;;26.95;18.17;;;;;;;29.55;66.10;66131.72;5052636;28;20224;-52
2023/07/18 08:31:35;;;;;;;19.17;16.77;;;;;;;29.53;66.64;66130.06;5052114;28;20218;-52
2023/07/18 08:34:01;;;;;;;20.52;16.85;;;;;;;29.50;66.47;66128.75;5052486;28;20205;-53
2023/07/18 08:36:27;;;;;;;23.45;16.70;;;;;;;29.63;66.23;66140.66;5051283;28;20201;-50
2023/07/18 08:38:53;;;;;;;18.65;16.75;;;;;;;29.70;65.34;66149.00;5052276;28;20692;-53
2023/07/18 08:41:22;;;;;;;20.20;16.73;;;;;;;29.90;63.97;66170.19;5052214;28;20213;-52
2023/07/18 08:43:48;;;;;;;20.27;17.30;;;;;;;30.03;63.35;66187.84;5052110;28;20355;-52
2023/07/18 08:46:15;;;;;;;21.60;16.90;;;;;;;30.05;62.81;66189.50;5052282;28;20210;-52
2023/07/18 08:48:44;;;;;;;21.33;16.77;;;;;;;30.29;63.11;66216.25;5052030;28;20209;-53
2023/07/18 08:51:12;;;;;;;18.88;16.90;;;;;;;30.83;61.28;66273.84;5052379;28;20706;-52
2023/07/18 08:53:39;;;;;;;20.75;16.88;;;;;;;30.60;61.98;66248.22;5051958;28;20220;-53
2023/07/18 08:56:08;;;;;;;20.13;17.40;;;;;;;30.29;62.09;66216.25;5052129;28;20267;-53
2023/07/18 08:58:36;;;;;;;20.10;16.95;;;;;;;30.07;62.34;66189.13;5051881;28;20362;-56
2023/07/18 09:01:03;;;;;;;21.67;17.83;;;;;;;30.08;61.31;66190.78;5051991;28;20244;-52
2023/07/18 09:03:28;;;;;;;23.35;17.35;;;;;;;30.26;61.15;66210.31;5051982;28;20225;-52
2023/07/18 09:05:55;;;;;;;23.20;18.73;;;;;;;30.18;62.05;66201.41;5051555;28;20717;-51
2023/07/18 09:08:21;;;;;;;21.33;17.80;;;;;;;30.47;62.17;66234.28;5051656;28;20278;-52
2023/07/18 09:10:47;;;;;;;22.88;18.98;;;;;;;30.54;61.33;66241.53;5051737;28;20794;-52
2023/07/18 09:13:13;;;;;;;20.15;17.85;;;;;;;30.29;61.58;66216.81;5050195;28;20209;-52
2023/07/18 09:15:39;;;;;;;19.58;17.73;;;;;;;30.10;61.32;66195.09;5051681;28;20262;-53
2023/07/18 09:18:12;;;;;;;18.90;16.55;;;;;;;30.02;61.90;66184.09;5051548;28;20210;-52
2023/07/18 09:20:39;;;;;;;20.50;18.27;;;;;;;30.16;62.48;66201.75;5049792;28;20208;-53
2023/07/18 09:23:05;;;;;;;22.35;17.55;;;;;;;30.17;63.83;66200.84;5050005;28;20217;-52
2023/07/18 09:25:36;;;;;;;19.80;16.88;;;;;;;30.63;60.82;66251.56;5051684;28;20220;-50
2023/07/18 09:28:02;;;;;;;21.88;16.75;;;;;;;30.74;59.13;66263.28;5051385;28;20236;-52
2023/07/18 09:30:33;;;;;;;18.55;16.58;;;;;;;30.45;61.11;66234.66;5051430;28;20758;-50
2023/07/18 09:32:58;;;;;;;21.08;18.90;;;;;;;30.84;59.99;66277.03;5051463;28;20217;-51
2023/07/18 09:35:27;;;;;;;26.55;20.98;;;;;;;30.82;61.06;66272.75;5051379;28;20235;-51
2023/07/18 09:37:53;;;;;;;18.48;16.05;;;;;;;30.94;59.61;66286.16;5051070;28;20213;-52
2023/07/18 09:40:19;;;;;;;16.50;14.75;;;;;;;30.78;59.72;66265.13;5051311;28;20358;-51
2023/07/18 09:42:46;;;;;;;18.58;15.35;;;;;;;30.68;60.17;66254.53;5051145;28;20221;-51
2023/07/18 09:45:15;;;;;;;20.98;15.13;;;;;;;30.26;59.83;66213.44;5051092;28;20233;-52
2023/07/18 09:47:42;;;;;;;17.13;14.30;;;;;;;30.01;60.51;66182.44;5050743;28;20279;-50
2023/07/18 09:50:09;;;;;;;17.35;15.00;;;;;;;30.27;62.14;66208.81;5049534;28;20641;-63
2023/07/18 09:52:39;;;;;;;18.98;14.15;;;;;;;30.67;61.00;66259.19;5050957;28;20209;-51
2023/07/18 09:55:10;;;;;;;19.50;14.68;;;;;;;30.90;60.24;66284.31;5050956;28;20262;-51
2023/07/18 09:57:39;;;;;;;18.20;15.70;;;;;;;31.03;61.17;66296.19;5050931;28;20213;-54
2023/07/18 10:00:09;;;;;;;17.75;15.63;;;;;;;31.32;58.66;66328.53;5050938;28;20243;-51
2023/07/18 10:02:34;;;;;;;19.08;15.68;;;;;;;31.72;59.25;66375.22;5050808;28;20308;-51
2023/07/18 10:05:04;;;;;;;16.33;14.73;;;;;;;31.95;56.66;66397.75;5050833;28;20647;-51
2023/07/18 10:07:33;;;;;;;16.92;14.13;;;;;;;32.15;54.74;66420.63;5050621;28;20232;-52
2023/07/18 10:10:00;;;;;;;15.82;14.18;;;;;;;31.57;55.47;66355.91;5050435;28;20894;-51
2023/07/18 10:12:28;;;;;;;20.85;14.00;;;;;;;31.10;56.64;66304.00;5049348;28;20205;-53
2023/07/18 10:14:59;;;;;;;19.35;14.05;;;;;;;30.90;56.75;66284.31;5048149;28;20708;-51
2023/07/18 10:17:36;;;;;;;15.98;14.27;;;;;;;31.69;58.42;66369.28;5050815;28;20270;-51
2023/07/18 10:20:13;;;;;;;14.70;13.30;;;;;;;31.47;55.89;66344.19;5050553;28;20224;-51
2023/07/18 10:22:59;;;;;;;14.05;12.55;;;;;;;31.31;57.16;66332.09;5050209;28;20252;-51
2023/07/18 10:25:29;;;;;;;13.25;11.85;;;;;;;31.80;54.89;66378.38;5050492;28;20742;-52
2023/07/18 10:27:56;;;;;;;16.02;12.00;;;;;;;32.15;54.61;66420.63;5050450;28;20216;-52
2023/07/18 10:30:23;;;;;;;13.57;12.10;;;;;;;31.70;53.11;66369.81;5050691;28;20197;-52
2023/07/18 10:32:57;;;;;;;13.82;11.13;;;;;;;31.78;51.89;66378.75;5050155;28;20339;-51
2023/07/18 10:35:26;;;;;;;11.77;10.60;;;;;;;31.52;51.83;66352.91;5050394;28;20234;-51
2023/07/18 10:37:57;;;;;;;14.38;10.38;;;;;;;31.21;51.86;66315.72;5050324;28;20217;-52
2023/07/18 10:40:33;;;;;;;11.32;10.15;;;;;;;32.06;52.01;66412.63;5048796;28;20202;-55
2023/07/18 10:42:59;;;;;;;12.90;10.48;;;;;;;32.66;50.22;66474.44;5050378;28;20324;-52
2023/07/18 10:45:24;;;;;;;13.23;10.52;;;;;;;33.09;49.88;66523.97;5050331;28;20224;-59
2023/07/18 10:47:51;;;;;;;12.05;10.85;;;;;;;33.57;50.89;66575.00;5049084;28;20695;-52
2023/07/18 10:50:17;;;;;;;11.05;9.93;;;;;;;33.20;46.70;66534.19;5050391;28;20193;-59
2023/07/18 10:52:43;;;;;;;9.63;8.73;;;;;;;32.94;48.40;66510.38;5050290;28;20217;-54
2023/07/18 10:55:08;;;;;;;12.07;9.95;;;;;;;33.30;49.47;66547.44;5050296;28;20208;-50
2023/07/18 10:57:37;;;;;;;11.25;8.88;;;;;;;33.50;45.84;66569.78;5031890;28;20699;-52
2023/07/18 11:00:05;;;;;;;18.48;8.65;;;;;;;33.16;46.99;66529.16;5049975;28;20311;-52
2023/07/18 11:02:41;;;;;;;10.85;8.50;;;;;;;33.57;45.44;66577.63;5048647;28;20711;-51
2023/07/18 11:05:13;;;;;;;11.02;8.00;;;;;;;33.94;44.30;66615.81;5050026;28;20208;-51
2023/07/18 11:07:45;;;;;;;8.35;7.53;;;;;;;34.13;45.45;66637.63;5049846;28;20767;-55
2023/07/18 11:10:13;;;;;;;8.73;6.22;;;;;;;34.02;42.01;66627.38;5050009;28;20212;-53
2023/07/18 11:12:40;;;;;;;8.23;5.65;;;;;;;34.79;41.30;66713.50;5049856;28;20300;-52
2023/07/18 11:15:11;;;;;;;8.32;5.15;;;;;;;34.50;38.24;66678.47;5049904;28;20602;-52
2023/07/18 11:17:42;;;;;;;9.38;5.00;;;;;;;34.30;37.00;66661.84;5049945;28;20209;-52